KBDR/BDR METAR and TAF weather

Enter ICAO airport designator
Station Type Date Time Source
KBDR METAR 2021/07/26 15:52 UTC NOAA

KBDR 261552Z 20005KT 10SM BKN065 26/22 A2989 RMK AO2 SLP121 T02610217


Station Type Date Time Source
KBDR Decoded METAR 2021/07/26 15:52 UTC NOAA

SIKORSKY MEMORIAL AIRPORT, CT, United States (KBDR) 41-10N 073-08W 7M
Jul 26, 2021 - 11:52 AM EDT / 2021.07.26 1552 UTC
Wind: from the SSW (200 degrees) at 6 MPH (5 KT):0
Visibility: 10 mile(s):0
Sky conditions: mostly cloudy
Temperature: 79.0 F (26.1 C)
Dew Point: 71.1 F (21.7 C)
Relative Humidity: 76%
Pressure (altimeter): 29.89 in. Hg (1012 hPa)
ob: KBDR 261552Z 20005KT 10SM BKN065 26/22 A2989 RMK AO2 SLP121 T02610217
cycle: 16

Station Type Date Time Source
KBDR TAF 2021/07/26 15:36 UTC NOAA

TAF
AMD KBDR 261432Z 2615/2712 22009KT P6SM FEW050 BKN250
FM270100 28005KT P6SM SCT060
FM270400 VRB03KT P6SM SKC

Example: see airport list